createdAt,value
2022-09-16T00:01:01.304Z,5.87
2022-09-16T00:03:29.269Z,4.60
2022-09-16T00:05:57.106Z,5.10
2022-09-16T00:08:26.296Z,4.50
2022-09-16T00:10:54.175Z,4.67
2022-09-16T00:13:21.985Z,3.87
2022-09-16T00:15:51.764Z,4.87
2022-09-16T00:18:21.367Z,4.20
2022-09-16T00:20:50.940Z,4.43
2022-09-16T00:23:19.885Z,4.87
2022-09-16T00:25:53.565Z,3.57
2022-09-16T00:28:22.716Z,4.00
2022-09-16T00:30:50.964Z,4.17
2022-09-16T00:33:19.824Z,3.40
2022-09-16T00:35:47.935Z,4.23
2022-09-16T00:38:15.950Z,5.53
2022-09-16T00:40:47.767Z,5.47
2022-09-16T00:43:18.142Z,4.87
2022-09-16T00:45:50.060Z,5.53
2022-09-16T00:48:22.344Z,3.97
2022-09-16T00:50:55.423Z,4.07
2022-09-16T00:53:26.055Z,4.10
2022-09-16T00:55:55.607Z,6.77
2022-09-16T00:58:30.496Z,5.10
2022-09-16T01:00:58.459Z,5.33
2022-09-16T01:03:27.121Z,3.90
2022-09-16T01:05:55.150Z,4.70
2022-09-16T01:08:22.994Z,4.00
2022-09-16T01:10:50.887Z,3.47
2022-09-16T01:13:19.047Z,3.93
2022-09-16T01:15:56.573Z,4.00
2022-09-16T01:18:29.343Z,4.53
2022-09-16T01:21:19.196Z,4.60
2022-09-16T01:24:32.611Z,4.40
2022-09-16T01:27:31.418Z,4.40
2022-09-16T01:30:28.543Z,4.07
2022-09-16T01:33:05.718Z,4.13
2022-09-16T01:35:46.841Z,4.00
2022-09-16T01:38:29.777Z,4.50
2022-09-16T01:41:06.324Z,3.90
2022-09-16T01:43:45.539Z,4.50
2022-09-16T01:46:20.692Z,4.53
2022-09-16T01:48:54.084Z,5.37
2022-09-16T01:51:27.447Z,4.73
2022-09-16T01:54:04.237Z,4.97
2022-09-16T01:56:38.657Z,4.47
2022-09-16T01:59:11.729Z,4.37
2022-09-16T02:01:45.618Z,4.90
2022-09-16T02:04:19.634Z,4.77
2022-09-16T02:06:50.376Z,4.00
2022-09-16T02:09:21.553Z,4.50
2022-09-16T02:11:53.039Z,5.00
2022-09-16T02:14:23.948Z,5.27
2022-09-16T02:16:55.328Z,4.60
2022-09-16T02:19:27.545Z,4.67
2022-09-16T02:21:57.747Z,4.60
2022-09-16T02:24:26.999Z,4.30
2022-09-16T02:26:59.549Z,4.43
2022-09-16T02:29:29.914Z,4.30
2022-09-16T02:32:02.116Z,4.73
2022-09-16T02:34:36.809Z,4.93
2022-09-16T02:37:13.458Z,4.57
2022-09-16T02:39:46.539Z,4.63
2022-09-16T02:42:14.696Z,5.67
2022-09-16T02:44:42.745Z,5.37
2022-09-16T02:47:16.021Z,5.50
2022-09-16T02:49:54.262Z,5.73
2022-09-16T02:52:31.265Z,5.67
2022-09-16T02:55:06.868Z,4.70
2022-09-16T02:57:34.786Z,7.07
2022-09-16T03:00:03.273Z,5.27
2022-09-16T03:02:33.956Z,4.80
2022-09-16T03:05:03.506Z,9.13
2022-09-16T03:07:31.582Z,5.00
2022-09-16T03:09:59.613Z,5.50
2022-09-16T03:12:52.033Z,5.60
2022-09-16T03:15:40.848Z,4.90
2022-09-16T03:18:19.230Z,5.30
2022-09-16T03:20:59.026Z,4.83
2022-09-16T03:23:37.456Z,4.77
2022-09-16T03:26:12.541Z,5.43
2022-09-16T03:28:49.229Z,5.37
2022-09-16T03:31:21.027Z,5.47
2022-09-16T03:33:52.014Z,5.20
2022-09-16T03:36:26.100Z,5.30
2022-09-16T03:38:55.736Z,5.87
2022-09-16T03:41:24.173Z,5.20
2022-09-16T03:43:58.048Z,5.47
2022-09-16T03:46:29.244Z,4.80
2022-09-16T03:48:57.134Z,5.97
2022-09-16T03:51:27.112Z,4.93
2022-09-16T03:53:55.695Z,5.60
2022-09-16T03:56:24.603Z,5.87
2022-09-16T03:58:52.839Z,4.83
2022-09-16T04:01:21.395Z,5.07
2022-09-16T04:03:49.286Z,5.70
2022-09-16T04:06:17.126Z,6.67
2022-09-16T04:08:47.295Z,5.60
2022-09-16T04:11:15.195Z,7.90
2022-09-16T04:13:43.011Z,5.33
2022-09-16T04:16:10.849Z,5.10
2022-09-16T04:18:38.757Z,5.37
2022-09-16T04:21:06.813Z,6.30
2022-09-16T04:23:34.691Z,6.60
2022-09-16T04:26:04.268Z,5.63
2022-09-16T04:28:33.817Z,6.03
2022-09-16T04:31:03.030Z,5.77
2022-09-16T04:33:31.873Z,5.93
2022-09-16T04:36:07.060Z,6.67
2022-09-16T04:38:35.133Z,5.73
2022-09-16T04:41:06.524Z,6.07
2022-09-16T04:43:34.413Z,5.60
2022-09-16T04:46:03.015Z,7.33
2022-09-16T04:48:31.547Z,6.53
2022-09-16T04:51:04.661Z,6.53
2022-09-16T04:53:32.552Z,6.00
2022-09-16T04:56:10.211Z,6.77
2022-09-16T04:58:38.157Z,6.43
2022-09-16T05:01:07.974Z,10.23
2022-09-16T05:03:35.894Z,9.00
2022-09-16T05:06:09.071Z,6.40
2022-09-16T05:08:37.293Z,6.67
2022-09-16T05:11:08.990Z,6.20
2022-09-16T05:13:37.109Z,5.60
2022-09-16T05:16:07.964Z,6.67
2022-09-16T05:18:36.283Z,6.47
2022-09-16T05:21:06.381Z,6.10
2022-09-16T05:23:34.517Z,6.10
2022-09-16T05:26:05.484Z,6.70
2022-09-16T05:28:35.265Z,6.60
2022-09-16T05:31:11.237Z,6.87
2022-09-16T05:33:39.629Z,7.77
2022-09-16T05:36:09.228Z,6.80
2022-09-16T05:38:37.080Z,7.00
2022-09-16T05:41:06.305Z,6.63
2022-09-16T05:43:36.653Z,6.57
2022-09-16T05:46:05.831Z,6.20
2022-09-16T05:48:35.032Z,6.90
2022-09-16T05:51:05.626Z,7.50
2022-09-16T05:53:34.831Z,6.70
2022-09-16T05:56:04.702Z,7.00
2022-09-16T05:58:35.729Z,6.50
2022-09-16T06:01:06.301Z,6.87
2022-09-16T06:03:35.588Z,6.37
2022-09-16T06:06:04.620Z,6.50
2022-09-16T06:08:34.770Z,6.57
2022-09-16T06:11:03.218Z,6.50
2022-09-16T06:13:31.494Z,6.87
2022-09-16T06:16:02.285Z,5.80
2022-09-16T06:18:31.542Z,5.77
2022-09-16T06:20:59.847Z,7.37
2022-09-16T06:23:27.718Z,7.10
2022-09-16T06:26:01.113Z,6.87
2022-09-16T06:28:28.980Z,7.30
2022-09-16T06:31:06.507Z,6.47
2022-09-16T06:33:34.828Z,6.20
2022-09-16T06:36:07.052Z,6.47
2022-09-16T06:38:35.550Z,6.37
2022-09-16T06:41:06.032Z,5.87
2022-09-16T06:43:34.588Z,6.23
2022-09-16T06:46:05.547Z,6.30
2022-09-16T06:48:34.546Z,6.20
2022-09-16T06:51:04.141Z,8.50
2022-09-16T06:53:32.816Z,7.00
2022-09-16T06:56:02.499Z,6.30
2022-09-16T06:58:33.089Z,7.23
2022-09-16T07:01:05.336Z,6.90
2022-09-16T07:03:34.509Z,7.10
2022-09-16T07:06:03.490Z,7.30
2022-09-16T07:08:32.580Z,7.00
2022-09-16T07:11:01.783Z,6.63
2022-09-16T07:13:29.915Z,7.27
2022-09-16T07:16:16.479Z,7.33
2022-09-16T07:18:46.879Z,8.60
2022-09-16T07:21:17.268Z,7.63
2022-09-16T07:23:46.269Z,6.87
2022-09-16T07:26:16.209Z,7.73
2022-09-16T07:28:46.352Z,6.10
2022-09-16T07:31:16.929Z,5.63
2022-09-16T07:33:48.464Z,6.30
2022-09-16T07:36:18.729Z,6.50
2022-09-16T07:38:47.333Z,6.43
2022-09-16T07:41:17.508Z,6.93
2022-09-16T07:43:46.039Z,6.90
2022-09-16T07:46:16.623Z,6.90
2022-09-16T07:48:46.864Z,6.40
2022-09-16T07:51:16.576Z,7.67
2022-09-16T07:53:45.276Z,7.53
2022-09-16T07:56:15.094Z,7.63
2022-09-16T07:58:44.797Z,7.47
2022-09-16T08:01:15.018Z,8.80
2022-09-16T08:03:44.122Z,7.60
2022-09-16T08:06:15.501Z,8.17
2022-09-16T08:08:44.097Z,7.83
2022-09-16T08:11:14.285Z,9.20
2022-09-16T08:13:44.299Z,8.70
2022-09-16T08:16:14.158Z,9.03
2022-09-16T08:18:42.799Z,8.37
2022-09-16T08:21:16.813Z,10.57
2022-09-16T08:23:44.882Z,8.13
2022-09-16T08:26:14.303Z,8.53
2022-09-16T08:28:57.439Z,8.80
2022-09-16T08:31:32.129Z,7.70
2022-09-16T08:34:00.236Z,8.10
2022-09-16T08:36:29.364Z,8.03
2022-09-16T08:38:57.829Z,8.13
2022-09-16T08:41:37.463Z,8.93
2022-09-16T08:44:16.209Z,8.60
2022-09-16T08:46:51.471Z,9.33
2022-09-16T08:49:26.825Z,8.50
2022-09-16T08:51:56.747Z,8.93
2022-09-16T08:54:28.837Z,8.73
2022-09-16T08:57:01.205Z,9.30
2022-09-16T08:59:33.514Z,8.33
2022-09-16T09:02:22.770Z,10.80
2022-09-16T09:04:51.050Z,8.30
2022-09-16T09:07:29.493Z,7.93
2022-09-16T09:10:10.212Z,8.40
2022-09-16T09:12:42.473Z,8.53
2022-09-16T09:15:32.622Z,7.67
2022-09-16T09:18:16.307Z,8.03
2022-09-16T09:20:52.281Z,8.20
2022-09-16T09:23:37.129Z,8.47
2022-09-16T09:26:11.029Z,8.47
2022-09-16T09:28:59.940Z,7.40
2022-09-16T09:31:39.268Z,7.83
2022-09-16T09:34:17.810Z,7.37
2022-09-16T09:36:58.809Z,8.13
2022-09-16T09:39:45.746Z,6.97
2022-09-16T09:42:18.493Z,7.70
2022-09-16T09:44:55.277Z,7.50
2022-09-16T09:47:27.962Z,7.57
2022-09-16T09:49:59.140Z,8.10
2022-09-16T09:52:33.849Z,7.10
2022-09-16T09:55:16.462Z,8.23
2022-09-16T09:58:00.598Z,7.83
2022-09-16T10:00:28.539Z,8.93
2022-09-16T10:03:05.629Z,8.10
2022-09-16T10:05:33.962Z,7.40
2022-09-16T10:08:05.719Z,6.87
2022-09-16T10:10:36.163Z,7.40
2022-09-16T10:13:11.533Z,7.13
2022-09-16T10:15:39.813Z,6.90
2022-09-16T10:18:14.253Z,7.23
2022-09-16T10:20:45.479Z,7.47
2022-09-16T10:23:16.099Z,8.63
2022-09-16T10:25:45.371Z,8.03
2022-09-16T10:28:22.573Z,7.17
2022-09-16T10:30:53.419Z,8.53
2022-09-16T10:33:25.521Z,7.60
2022-09-16T10:35:57.862Z,7.17
2022-09-16T10:38:28.233Z,6.40
2022-09-16T10:41:02.031Z,8.23
2022-09-16T10:43:31.531Z,9.13
2022-09-16T10:45:59.761Z,7.40
2022-09-16T10:48:30.623Z,8.93
2022-09-16T10:51:00.092Z,6.47
2022-09-16T10:53:32.629Z,7.50
2022-09-16T10:56:04.111Z,7.70
2022-09-16T10:58:32.033Z,8.07
2022-09-16T11:01:22.531Z,7.47
2022-09-16T11:04:15.161Z,6.90
2022-09-16T11:06:59.552Z,7.33
2022-09-16T11:09:33.623Z,5.40
2022-09-16T11:12:49.452Z,5.10
2022-09-16T11:15:30.619Z,5.23
2022-09-16T11:18:11.289Z,4.17
2022-09-16T11:21:11.774Z,4.60
2022-09-16T11:23:53.092Z,4.33
2022-09-16T11:26:28.312Z,4.67
2022-09-16T11:29:16.811Z,4.33
2022-09-16T11:31:54.408Z,4.40
2022-09-16T11:34:36.180Z,4.23
2022-09-16T11:37:13.818Z,3.40
2022-09-16T11:39:54.744Z,4.40
2022-09-16T11:42:30.956Z,4.80
2022-09-16T11:45:16.433Z,5.40
2022-09-16T11:48:01.878Z,4.43
2022-09-16T11:50:41.041Z,5.77
2022-09-16T11:53:27.095Z,5.43
2022-09-16T11:56:00.152Z,5.63
2022-09-16T11:58:36.129Z,6.20
2022-09-16T12:01:14.073Z,5.57
2022-09-16T12:03:48.360Z,5.10
2022-09-16T12:06:19.573Z,5.40
2022-09-16T12:08:57.289Z,4.37
2022-09-16T12:11:32.877Z,3.83
2022-09-16T12:14:09.370Z,3.83
2022-09-16T12:16:43.573Z,3.90
2022-09-16T12:19:20.829Z,4.17
2022-09-16T12:21:57.628Z,4.63
2022-09-16T12:24:32.280Z,4.07
2022-09-16T12:27:06.993Z,4.17
2022-09-16T12:29:41.665Z,4.90
2022-09-16T12:32:14.096Z,3.53
2022-09-16T12:34:49.500Z,4.17
2022-09-16T12:37:33.685Z,3.73
2022-09-16T12:40:01.989Z,5.20
2022-09-16T12:43:10.061Z,3.60
2022-09-16T12:46:05.512Z,4.27
2022-09-16T12:48:54.214Z,3.53
2022-09-16T12:51:48.226Z,3.70
2022-09-16T12:54:51.273Z,4.30
2022-09-16T12:57:37.867Z,3.90
2022-09-16T13:00:15.248Z,3.57
2022-09-16T13:02:47.589Z,4.43
2022-09-16T13:05:21.469Z,3.80
2022-09-16T13:07:54.467Z,3.10
2022-09-16T13:10:54.651Z,4.70
2022-09-16T13:13:29.106Z,4.00
2022-09-16T13:15:58.595Z,4.40
2022-09-16T13:18:40.764Z,4.07
2022-09-16T13:21:18.118Z,3.63
2022-09-16T13:23:53.305Z,3.53
2022-09-16T13:26:21.186Z,3.77
2022-09-16T13:28:49.465Z,4.10
2022-09-16T13:31:20.271Z,4.20
2022-09-16T13:33:50.196Z,4.13
2022-09-16T13:36:34.292Z,3.30
2022-09-16T13:39:05.837Z,3.77
2022-09-16T13:41:36.956Z,4.20
2022-09-16T13:44:20.545Z,4.10
2022-09-16T13:46:48.544Z,3.53
2022-09-16T13:49:21.396Z,3.43
2022-09-16T13:51:51.062Z,4.13
2022-09-16T13:54:30.381Z,7.20
2022-09-16T13:57:28.357Z,6.97
2022-09-16T14:00:15.926Z,10.17
2022-09-16T14:03:21.591Z,5.43
2022-09-16T14:06:21.668Z,4.03
2022-09-16T14:08:58.789Z,4.50
2022-09-16T14:11:41.255Z,3.37
2022-09-16T14:14:29.783Z,3.40
2022-09-16T14:17:05.163Z,3.80
2022-09-16T14:19:37.721Z,8.30
2022-09-16T14:22:07.326Z,4.60
2022-09-16T14:24:37.206Z,5.10
2022-09-16T14:27:18.738Z,5.23
2022-09-16T14:29:58.910Z,3.57
2022-09-16T14:32:28.982Z,4.67
2022-09-16T14:34:59.999Z,5.40
2022-09-16T14:37:31.017Z,6.70
2022-09-16T14:40:07.489Z,5.10
2022-09-16T14:42:37.637Z,5.47
2022-09-16T14:45:08.289Z,5.27
2022-09-16T14:47:51.121Z,3.70
2022-09-16T14:50:24.646Z,3.17
2022-09-16T14:52:57.978Z,3.67
2022-09-16T14:55:29.995Z,3.80
2022-09-16T14:58:00.036Z,2.97
2022-09-16T15:00:32.924Z,2.87
2022-09-16T15:03:04.842Z,2.83
2022-09-16T15:05:36.096Z,4.57
2022-09-16T15:08:14.751Z,3.07
2022-09-16T15:10:52.370Z,2.97
2022-09-16T15:13:24.993Z,2.60
2022-09-16T15:15:56.598Z,3.10
2022-09-16T15:18:28.508Z,4.00
2022-09-16T15:21:07.017Z,4.70
2022-09-16T15:23:37.237Z,3.00
2022-09-16T15:26:15.427Z,3.30
2022-09-16T15:31:48.166Z,3.67
2022-09-16T15:34:24.340Z,4.23
2022-09-16T15:36:54.215Z,3.07
2022-09-16T15:39:26.876Z,3.57
2022-09-16T15:42:11.097Z,3.07
2022-09-16T15:44:46.936Z,2.93
2022-09-16T15:47:20.335Z,3.50
2022-09-16T15:49:50.888Z,3.63
2022-09-16T15:52:19.167Z,3.67
2022-09-16T15:54:52.458Z,3.70
2022-09-16T15:57:30.821Z,12.10
2022-09-16T16:00:12.625Z,3.97
2022-09-16T16:02:44.982Z,3.17
2022-09-16T16:05:16.131Z,3.20
2022-09-16T16:07:46.349Z,3.23
2022-09-16T16:10:17.782Z,3.53
2022-09-16T16:12:47.818Z,3.43
2022-09-16T16:15:19.596Z,3.43
2022-09-16T16:17:49.472Z,3.80
2022-09-16T16:20:18.336Z,4.00
2022-09-16T16:22:46.575Z,3.73
2022-09-16T16:25:15.046Z,3.20
2022-09-16T16:27:43.213Z,4.17
2022-09-16T16:30:12.103Z,4.17
2022-09-16T16:32:41.565Z,3.87
2022-09-16T16:35:10.062Z,3.83
2022-09-16T16:37:46.511Z,3.60
2022-09-16T16:40:15.362Z,5.80
2022-09-16T16:42:44.224Z,3.70
2022-09-16T16:45:12.977Z,4.90
2022-09-16T16:47:42.309Z,3.80
2022-09-16T16:50:11.119Z,4.50
2022-09-16T16:52:39.277Z,4.33
2022-09-16T16:55:07.939Z,4.87
2022-09-16T16:57:35.785Z,4.60
2022-09-16T17:00:04.484Z,4.60
2022-09-16T17:02:32.421Z,5.33
2022-09-16T17:05:01.689Z,4.27
2022-09-16T17:07:30.016Z,5.10
2022-09-16T17:09:58.396Z,4.90
2022-09-16T17:12:26.502Z,4.50
2022-09-16T17:14:54.310Z,4.30
2022-09-16T17:17:22.208Z,4.87
2022-09-16T17:19:50.040Z,4.17
2022-09-16T17:22:19.234Z,5.20
2022-09-16T17:24:47.065Z,5.13
2022-09-16T17:27:19.586Z,4.67
2022-09-16T17:29:47.469Z,5.00
2022-09-16T17:32:16.136Z,4.73
2022-09-16T17:34:44.006Z,5.17
2022-09-16T17:37:14.113Z,5.03
2022-09-16T17:39:43.290Z,4.90
2022-09-16T17:42:11.109Z,5.30
2022-09-16T17:44:38.984Z,5.00
2022-09-16T17:47:07.094Z,4.90
2022-09-16T17:49:34.987Z,5.10
2022-09-16T17:52:03.235Z,5.53
2022-09-16T17:54:31.196Z,5.00
2022-09-16T17:57:00.375Z,5.20
2022-09-16T17:59:28.240Z,5.63
2022-09-16T18:01:56.136Z,5.87
2022-09-16T18:04:24.006Z,5.93
2022-09-16T18:06:52.053Z,5.20
2022-09-16T18:09:19.904Z,5.50
2022-09-16T18:11:47.732Z,5.90
2022-09-16T18:14:21.295Z,5.90
2022-09-16T18:16:51.144Z,5.03
2022-09-16T18:19:19.111Z,5.47
2022-09-16T18:21:47.027Z,6.00
2022-09-16T18:24:14.894Z,5.57
2022-09-16T18:26:43.541Z,5.83
2022-09-16T18:29:12.865Z,7.10
2022-09-16T18:31:44.009Z,5.77
2022-09-16T18:34:12.697Z,5.37
2022-09-16T18:36:41.044Z,4.67
2022-09-16T18:39:13.516Z,4.90
2022-09-16T18:41:43.138Z,4.30
2022-09-16T18:44:14.676Z,4.23
2022-09-16T18:46:44.184Z,4.53
2022-09-16T18:49:16.897Z,6.03
2022-09-16T18:51:50.575Z,4.00
2022-09-16T18:54:24.722Z,4.20
2022-09-16T18:56:55.517Z,3.87
2022-09-16T18:59:26.595Z,4.67
2022-09-16T19:01:57.722Z,4.00
2022-09-16T19:04:27.379Z,4.50
2022-09-16T19:06:57.225Z,4.30
2022-09-16T19:09:25.932Z,4.70
2022-09-16T19:11:54.302Z,4.60
2022-09-16T19:14:24.575Z,4.70
2022-09-16T19:16:53.099Z,5.70
2022-09-16T19:19:22.900Z,4.27
2022-09-16T19:21:50.984Z,4.00
2022-09-16T19:24:20.185Z,4.80
2022-09-16T19:26:49.097Z,4.60
2022-09-16T19:29:18.221Z,4.13
2022-09-16T19:31:47.813Z,3.50
2022-09-16T19:34:16.985Z,3.87
2022-09-16T19:36:46.326Z,3.93
2022-09-16T19:39:14.635Z,4.60
2022-09-16T19:41:43.147Z,3.93
2022-09-16T19:44:13.774Z,4.30
2022-09-16T19:46:43.317Z,4.00
2022-09-16T19:49:15.850Z,5.67
2022-09-16T19:51:44.088Z,3.53
2022-09-16T19:54:13.875Z,4.03
2022-09-16T19:56:46.987Z,5.53
2022-09-16T19:59:17.769Z,4.40
2022-09-16T20:01:45.897Z,4.23
2022-09-16T20:04:14.272Z,3.90
2022-09-16T20:06:45.245Z,4.70
2022-09-16T20:09:14.505Z,4.73
2022-09-16T20:11:44.654Z,4.10
2022-09-16T20:14:16.191Z,4.50
2022-09-16T20:16:44.377Z,5.30
2022-09-16T20:19:15.792Z,4.47
2022-09-16T20:21:43.902Z,5.00
2022-09-16T20:24:18.167Z,4.07
2022-09-16T20:26:46.461Z,6.10
2022-09-16T20:29:14.653Z,4.10
2022-09-16T20:31:42.539Z,4.53
2022-09-16T20:34:11.897Z,4.80
2022-09-16T20:36:40.629Z,5.40
2022-09-16T20:39:10.125Z,4.40
2022-09-16T20:41:40.705Z,4.50
2022-09-16T20:44:08.913Z,5.27
2022-09-16T20:46:38.616Z,5.23
2022-09-16T20:49:10.398Z,4.80
2022-09-16T20:51:38.390Z,4.23
2022-09-16T20:54:08.613Z,4.87
2022-09-16T20:56:40.598Z,5.17
2022-09-16T20:59:09.591Z,6.30
2022-09-16T21:01:38.843Z,10.97
2022-09-16T21:04:12.221Z,4.50
2022-09-16T21:06:40.292Z,5.13
2022-09-16T21:09:10.173Z,4.30
2022-09-16T21:11:43.579Z,5.03
2022-09-16T21:14:14.476Z,4.27
2022-09-16T21:16:43.161Z,5.10
2022-09-16T21:19:12.891Z,4.30
2022-09-16T21:21:43.663Z,5.23
2022-09-16T21:24:11.725Z,4.50
2022-09-16T21:26:41.475Z,4.60
2022-09-16T21:29:13.153Z,5.43
2022-09-16T21:31:42.451Z,4.53
2022-09-16T21:34:13.474Z,4.70
2022-09-16T21:36:41.489Z,5.00
2022-09-16T21:39:09.533Z,4.93
2022-09-16T21:41:38.042Z,5.07
2022-09-16T21:44:07.444Z,4.33
2022-09-16T21:46:41.069Z,4.40
2022-09-16T21:49:16.883Z,4.07
2022-09-16T21:51:44.809Z,3.63
2022-09-16T21:54:16.577Z,4.87
2022-09-16T21:56:46.985Z,4.03
2022-09-16T21:59:16.594Z,3.97
2022-09-16T22:01:44.776Z,4.47
2022-09-16T22:04:15.310Z,4.03
2022-09-16T22:06:43.708Z,4.87
2022-09-16T22:09:12.734Z,4.37
2022-09-16T22:11:42.125Z,5.97
2022-09-16T22:14:11.046Z,4.93
2022-09-16T22:16:41.380Z,4.40
2022-09-16T22:19:12.130Z,4.63
2022-09-16T22:21:41.547Z,4.20
2022-09-16T22:24:10.084Z,4.37
2022-09-16T22:26:38.694Z,6.13
2022-09-16T22:29:08.918Z,4.03
2022-09-16T22:31:38.917Z,4.93
2022-09-16T22:34:08.752Z,4.10
2022-09-16T22:36:39.308Z,4.70
2022-09-16T22:39:11.292Z,4.10
2022-09-16T22:41:39.130Z,4.07
2022-09-16T22:44:07.299Z,3.83
2022-09-16T22:46:39.542Z,5.27
2022-09-16T22:49:09.003Z,4.17
2022-09-16T22:51:36.934Z,4.10
2022-09-16T22:54:05.364Z,5.00
2022-09-16T22:56:33.829Z,5.03
2022-09-16T22:59:03.077Z,4.53
2022-09-16T23:01:34.696Z,4.97
2022-09-16T23:04:04.400Z,4.17
2022-09-16T23:06:34.907Z,4.37
2022-09-16T23:09:03.457Z,4.77
2022-09-16T23:11:33.906Z,4.27
2022-09-16T23:14:02.941Z,5.00
2022-09-16T23:16:33.034Z,4.20
2022-09-16T23:19:06.994Z,4.33
2022-09-16T23:21:37.145Z,4.10
2022-09-16T23:24:06.979Z,4.30
2022-09-16T23:26:37.223Z,4.23
2022-09-16T23:29:07.362Z,4.70
2022-09-16T23:31:37.630Z,4.40
2022-09-16T23:34:07.685Z,4.20
2022-09-16T23:36:37.913Z,7.50
2022-09-16T23:39:06.997Z,4.30
2022-09-16T23:41:35.342Z,4.23
2022-09-16T23:44:03.903Z,4.17
2022-09-16T23:46:31.835Z,4.30
2022-09-16T23:48:59.711Z,5.03
2022-09-16T23:51:29.381Z,4.50
2022-09-16T23:53:59.649Z,4.43
2022-09-16T23:56:28.240Z,3.50
2022-09-16T23:59:00.467Z,3.70
